Time;durP1;ratioP1;P1;durP2;ratioP2;P2;SDS_P1;SDS_P2;PMS_P1;PMS_P2;Temp;Humidity;BMP_temperature;BMP_pressure;BME280_temperature;BME280_humidity;BME280_pressure;Samples;Min_cycle;Max_cycle;Signal;HPM_P1;HPM_P2
2020/12/15 00:01:08;;;;;;;7.05;5.00;;;9.80;95.80;;;;;;5049427;28;20028;-44
2020/12/15 00:03:34;;;;;;;6.65;4.55;;;9.80;95.80;;;;;;5049987;28;20369;-42
2020/12/15 00:05:59;;;;;;;7.50;5.40;;;9.80;95.80;;;;;;5049756;28;20045;-43
2020/12/15 00:08:25;;;;;;;7.63;4.93;;;9.80;95.70;;;;;;5049019;28;20839;-42
2020/12/15 00:10:50;;;;;;;7.00;4.82;;;9.80;95.60;;;;;;5050198;28;20029;-43
2020/12/15 00:13:16;;;;;;;7.47;5.05;;;9.80;95.60;;;;;;5049680;28;20124;-41
2020/12/15 00:15:41;;;;;;;5.43;4.20;;;9.80;95.60;;;;;;5049195;28;20112;-43
2020/12/15 00:18:07;;;;;;;5.82;4.50;;;9.80;95.60;;;;;;5049873;28;20039;-43
2020/12/15 00:20:33;;;;;;;5.95;4.65;;;9.80;95.80;;;;;;5049679;28;20025;-43
2020/12/15 00:23:00;;;;;;;6.03;4.45;;;9.80;95.60;;;;;;5049726;28;20060;-43
2020/12/15 00:25:26;;;;;;;7.20;4.30;;;9.80;95.60;;;;;;5049118;28;20396;-42
2020/12/15 00:27:51;;;;;;;4.22;3.75;;;9.80;95.60;;;;;;5049660;28;20033;-43
2020/12/15 00:30:17;;;;;;;5.82;3.63;;;9.80;95.60;;;;;;5049167;28;20028;-44
2020/12/15 00:32:47;;;;;;;4.15;3.53;;;9.80;95.60;;;;;;5049372;28;20173;-42
2020/12/15 00:35:13;;;;;;;4.97;3.85;;;9.80;95.60;;;;;;5049100;28;20052;-41
2020/12/15 00:37:38;;;;;;;4.32;3.75;;;9.80;95.70;;;;;;5048998;28;20075;-43
2020/12/15 00:40:04;;;;;;;7.72;4.63;;;9.80;95.70;;;;;;5049511;28;20039;-42
2020/12/15 00:42:30;;;;;;;5.45;4.32;;;9.80;95.70;;;;;;5048660;28;20048;-43
2020/12/15 00:44:55;;;;;;;5.80;4.68;;;9.80;95.60;;;;;;5049094;28;20033;-43
2020/12/15 00:47:21;;;;;;;8.30;4.80;;;9.80;95.60;;;;;;5048951;28;20768;-43
2020/12/15 00:49:47;;;;;;;6.57;4.50;;;9.80;95.50;;;;;;5049305;28;20032;-44
2020/12/15 00:52:12;;;;;;;5.30;4.75;;;9.80;95.50;;;;;;5048691;28;20076;-43
2020/12/15 00:54:38;;;;;;;6.20;4.50;;;9.80;95.40;;;;;;5048957;28;20416;-43
2020/12/15 00:57:04;;;;;;;7.63;4.72;;;9.80;95.70;;;;;;5048488;28;20492;-43
2020/12/15 00:59:29;;;;;;;6.10;4.10;;;9.80;95.40;;;;;;5048776;28;20037;-43
2020/12/15 01:01:59;;;;;;;5.75;4.60;;;9.80;95.40;;;;;;5048463;28;20025;-43
2020/12/15 01:04:25;;;;;;;6.60;4.38;;;9.80;95.40;;;;;;5047961;28;20029;-43
2020/12/15 01:06:50;;;;;;;7.70;4.43;;;9.80;95.40;;;;;;5048934;28;20031;-44
2020/12/15 01:09:16;;;;;;;7.53;4.90;;;9.80;95.40;;;;;;5048294;28;20079;-44
2020/12/15 01:11:41;;;;;;;4.50;4.05;;;9.80;95.40;;;;;;5048320;28;20120;-44
2020/12/15 01:14:07;;;;;;;5.07;4.20;;;9.90;95.50;;;;;;5047903;28;20021;-42
2020/12/15 01:16:32;;;;;;;5.30;4.32;;;9.80;95.40;;;;;;5048078;28;20484;-43
2020/12/15 01:18:58;;;;;;;4.80;4.28;;;9.90;95.40;;;;;;5047819;28;20029;-42
2020/12/15 01:21:28;;;;;;;8.10;4.70;;;9.90;95.40;;;;;;5047974;28;20494;-43
2020/12/15 01:23:53;;;;;;;4.53;3.97;;;9.90;95.40;;;;;;5048826;28;20017;-43
2020/12/15 01:26:20;;;;;;;5.63;4.75;;;9.90;95.30;;;;;;5047862;28;20029;-42
2020/12/15 01:28:45;;;;;;;8.07;4.53;;;9.90;95.30;;;;;;5048621;28;20482;-42
2020/12/15 01:31:11;;;;;;;8.98;5.47;;;9.90;95.40;;;;;;5047947;28;20029;-44
2020/12/15 01:33:36;;;;;;;6.63;4.45;;;9.80;95.30;;;;;;5048316;28;20057;-43
2020/12/15 01:36:02;;;;;;;7.10;4.75;;;9.80;95.30;;;;;;5048409;28;20083;-43
2020/12/15 01:38:27;;;;;;;9.60;4.90;;;9.80;95.30;;;;;;5047742;28;20506;-43
2020/12/15 01:40:53;;;;;;;5.70;4.60;;;9.80;95.30;;;;;;5048125;28;20025;-42
2020/12/15 01:43:18;;;;;;;6.57;4.68;;;9.80;95.40;;;;;;5047628;28;20031;-43
2020/12/15 01:45:44;;;;;;;6.38;4.55;;;9.80;95.40;;;;;;5048280;28;20082;-44
2020/12/15 01:48:11;;;;;;;6.90;5.15;;;9.80;95.40;;;;;;5046402;28;20468;-42
2020/12/15 01:50:37;;;;;;;5.60;4.68;;;9.80;95.40;;;;;;5047495;28;20465;-43
2020/12/15 01:53:06;;;;;;;6.22;5.18;;;9.80;95.40;;;;;;5047916;28;20048;-42
2020/12/15 01:55:33;;;;;;;6.90;4.88;;;9.80;95.50;;;;;;5046923;28;20144;-43
2020/12/15 01:58:00;;;;;;;7.30;5.22;;;9.70;95.40;;;;;;5047507;28;20400;-43
2020/12/15 02:00:26;;;;;;;6.78;5.43;;;9.70;95.50;;;;;;5046981;28;20055;-43
2020/12/15 02:02:52;;;;;;;7.13;5.35;;;9.70;95.50;;;;;;5047597;28;20052;-43
2020/12/15 02:05:17;;;;;;;8.40;5.35;;;9.70;95.50;;;;;;5046185;28;20077;-44
2020/12/15 02:07:43;;;;;;;8.35;5.93;;;9.70;95.50;;;;;;5046758;28;20025;-43
2020/12/15 02:10:09;;;;;;;7.03;5.28;;;9.70;95.80;;;;;;5047761;28;20353;-43
2020/12/15 02:12:34;;;;;;;6.13;5.13;;;9.70;95.50;;;;;;5047893;28;20028;-43
2020/12/15 02:15:00;;;;;;;6.55;5.07;;;9.70;95.60;;;;;;5047501;28;20037;-43
2020/12/15 02:17:26;;;;;;;6.25;5.15;;;9.70;95.60;;;;;;5047063;28;20032;-42
2020/12/15 02:20:08;;;;;;;8.05;5.25;;;9.70;95.60;;;;;;5047722;28;20025;-43
2020/12/15 02:22:35;;;;;;;6.90;5.23;;;9.60;95.60;;;;;;5046844;28;20029;-43
2020/12/15 02:25:01;;;;;;;7.72;6.22;;;9.60;95.60;;;;;;5047676;28;20303;-43
2020/12/15 02:27:27;;;;;;;6.53;5.30;;;9.70;95.70;;;;;;5046828;28;20028;-42
2020/12/15 02:29:52;;;;;;;9.68;5.55;;;9.70;95.70;;;;;;5047033;28;20029;-43
2020/12/15 02:32:18;;;;;;;6.47;4.78;;;9.60;95.70;;;;;;5046983;28;20556;-43
2020/12/15 02:34:43;;;;;;;5.00;4.35;;;9.60;95.70;;;;;;5047361;28;20029;-43
2020/12/15 02:37:13;;;;;;;6.13;5.20;;;9.70;95.80;;;;;;5046086;28;20102;-43
2020/12/15 02:39:39;;;;;;;5.38;4.43;;;9.60;95.80;;;;;;5047292;28;20029;-43
2020/12/15 02:42:04;;;;;;;8.05;4.68;;;9.70;95.80;;;;;;5047287;28;20488;-43
2020/12/15 02:44:30;;;;;;;4.57;4.18;;;9.70;95.80;;;;;;5046021;28;20150;-43
2020/12/15 02:46:56;;;;;;;4.82;3.97;;;9.70;95.80;;;;;;5047458;28;20028;-44
2020/12/15 02:49:21;;;;;;;5.75;4.32;;;9.70;95.80;;;;;;5046410;28;20029;-43
2020/12/15 02:51:50;;;;;;;5.22;4.35;;;9.70;95.90;;;;;;5046445;28;20029;-46
2020/12/15 02:54:17;;;;;;;4.30;3.50;;;9.70;95.80;;;;;;5046608;28;20057;-42
2020/12/15 02:56:43;;;;;;;4.57;4.15;;;9.70;95.80;;;;;;5046697;28;20025;-43
2020/12/15 02:59:09;;;;;;;4.38;3.50;;;9.70;95.80;;;;;;5045741;28;20029;-42
2020/12/15 03:01:43;;;;;;;4.47;4.05;;;9.70;95.90;;;;;;5046925;28;20813;-43
2020/12/15 03:04:10;;;;;;;6.15;5.45;;;9.70;95.90;;;;;;5046155;28;20739;-42
2020/12/15 03:06:35;;;;;;;7.82;5.20;;;9.70;96.10;;;;;;5046977;28;20060;-43
2020/12/15 03:09:02;;;;;;;7.22;4.90;;;9.60;96.10;;;;;;5047134;28;20099;-42
2020/12/15 03:11:28;;;;;;;6.18;4.90;;;9.60;96.20;;;;;;5046144;28;20029;-42
2020/12/15 03:13:53;;;;;;;6.07;4.70;;;9.60;96.40;;;;;;5046737;28;20112;-42
2020/12/15 03:16:20;;;;;;;5.90;5.28;;;9.60;96.50;;;;;;5046222;28;20032;-43
2020/12/15 03:18:45;;;;;;;8.98;5.72;;;9.60;96.80;;;;;;5046445;28;20710;-44
2020/12/15 03:21:15;;;;;;;6.75;5.25;;;9.50;96.90;;;;;;5046658;28;20037;-43
2020/12/15 03:23:40;;;;;;;6.88;5.07;;;9.50;96.90;;;;;;5046582;28;20037;-42
2020/12/15 03:26:06;;;;;;;6.28;5.40;;;9.50;96.90;;;;;;5045648;28;20369;-43
2020/12/15 03:28:31;;;;;;;5.65;4.63;;;9.50;97.00;;;;;;5046597;28;20518;-43
2020/12/15 03:30:57;;;;;;;6.60;4.93;;;9.50;96.90;;;;;;5046391;28;20035;-44
2020/12/15 03:33:22;;;;;;;6.70;5.50;;;9.50;96.90;;;;;;5045487;28;20077;-42
2020/12/15 03:35:48;;;;;;;5.25;4.75;;;9.60;97.00;;;;;;5047143;28;20033;-43
2020/12/15 03:38:13;;;;;;;5.65;4.95;;;9.50;96.90;;;;;;5045611;28;20025;-43
2020/12/15 03:40:39;;;;;;;5.82;4.88;;;9.60;97.00;;;;;;5046220;28;20472;-43
2020/12/15 03:43:04;;;;;;;6.72;4.97;;;9.60;96.90;;;;;;5046655;28;20104;-42
2020/12/15 03:45:30;;;;;;;6.20;5.60;;;9.60;97.00;;;;;;5045627;28;20037;-42
2020/12/15 03:47:57;;;;;;;6.93;5.53;;;9.60;97.00;;;;;;5045758;28;20025;-42
2020/12/15 03:50:23;;;;;;;8.85;5.57;;;9.60;97.00;;;;;;5045779;28;20036;-44
2020/12/15 03:52:48;;;;;;;5.78;5.18;;;9.60;97.00;;;;;;5046418;28;20021;-43
2020/12/15 03:55:14;;;;;;;6.43;5.22;;;9.70;97.00;;;;;;5045391;28;20052;-43
2020/12/15 03:57:39;;;;;;;6.10;5.50;;;9.60;97.00;;;;;;5046288;28;20040;-42
2020/12/15 04:00:06;;;;;;;6.30;5.43;;;9.70;97.00;;;;;;5046086;28;20127;-44
2020/12/15 04:02:31;;;;;;;7.80;5.55;;;9.70;97.00;;;;;;5046099;28;20036;-43
2020/12/15 04:04:57;;;;;;;4.80;4.30;;;9.70;97.00;;;;;;5046220;28;20037;-43
2020/12/15 04:07:22;;;;;;;7.20;4.80;;;9.70;97.00;;;;;;5045426;28;20025;-43
2020/12/15 04:09:48;;;;;;;6.78;4.90;;;9.70;96.90;;;;;;5046712;28;20112;-43
2020/12/15 04:12:13;;;;;;;5.10;4.03;;;9.70;97.00;;;;;;5047654;28;20025;-42
2020/12/15 04:14:40;;;;;;;6.10;5.03;;;9.70;96.90;;;;;;5049868;28;20079;-43
2020/12/15 04:17:05;;;;;;;5.63;4.47;;;9.70;96.90;;;;;;5049696;28;20025;-43
2020/12/15 04:19:31;;;;;;;5.85;4.57;;;9.70;96.90;;;;;;5049527;28;20526;-42
2020/12/15 04:21:56;;;;;;;5.82;4.32;;;9.70;96.90;;;;;;5049686;28;20081;-43
2020/12/15 04:24:22;;;;;;;6.07;4.40;;;9.80;97.00;;;;;;5048992;28;20044;-43
2020/12/15 04:26:47;;;;;;;6.00;4.63;;;9.80;96.90;;;;;;5049832;28;20548;-42
2020/12/15 04:29:13;;;;;;;6.80;4.40;;;9.80;96.90;;;;;;5048570;28;20033;-43
2020/12/15 04:31:38;;;;;;;5.43;4.10;;;9.80;96.80;;;;;;5049300;28;20021;-43
2020/12/15 04:34:04;;;;;;;5.70;4.07;;;9.80;96.80;;;;;;5049797;28;20492;-43
2020/12/15 04:36:30;;;;;;;6.22;4.32;;;9.90;96.80;;;;;;5048571;28;20116;-43
2020/12/15 04:38:56;;;;;;;6.18;4.55;;;9.90;96.80;;;;;;5048886;28;20029;-42
2020/12/15 04:41:22;;;;;;;6.30;5.28;;;9.90;96.70;;;;;;5048348;28;20029;-43
2020/12/15 04:43:48;;;;;;;6.05;4.47;;;9.90;96.70;;;;;;5048528;28;20064;-43
2020/12/15 04:46:18;;;;;;;7.28;5.15;;;9.90;96.70;;;;;;5048718;28;20448;-43
2020/12/15 04:48:51;;;;;;;5.80;4.82;;;9.90;96.70;;;;;;5049747;28;20345;-42
2020/12/15 04:51:20;;;;;;;5.40;4.90;;;9.90;96.70;;;;;;5048403;28;20033;-43
2020/12/15 04:53:50;;;;;;;5.78;4.80;;;9.90;96.70;;;;;;5048715;28;20025;-43
2020/12/15 04:56:30;;;;;;;7.13;4.72;;;9.90;96.70;;;;;;5047858;28;20110;-42
2020/12/15 04:58:57;;;;;;;5.32;4.50;;;9.90;96.70;;;;;;5048422;28;20598;-44
2020/12/15 05:01:23;;;;;;;6.10;5.00;;;9.90;96.70;;;;;;5048792;28;20021;-44
2020/12/15 05:03:52;;;;;;;5.53;4.78;;;9.90;96.70;;;;;;5048975;28;20112;-43
2020/12/15 05:06:27;;;;;;;7.00;4.80;;;9.90;96.60;;;;;;5048652;28;20029;-43
2020/12/15 05:08:53;;;;;;;5.88;4.60;;;9.90;96.60;;;;;;5048323;28;20021;-42
2020/12/15 05:11:19;;;;;;;7.93;4.55;;;10.00;96.70;;;;;;5047467;28;20035;-44
2020/12/15 05:13:45;;;;;;;6.05;4.70;;;9.90;96.60;;;;;;5048720;28;20029;-43
2020/12/15 05:16:11;;;;;;;5.65;4.32;;;10.00;96.60;;;;;;5048369;28;20033;-43
2020/12/15 05:18:36;;;;;;;5.32;4.60;;;9.90;96.60;;;;;;5048508;28;20079;-44
2020/12/15 05:21:17;;;;;;;5.03;4.53;;;10.00;96.60;;;;;;5048837;28;20743;-44
2020/12/15 05:23:50;;;;;;;5.78;4.50;;;10.00;96.60;;;;;;5047140;28;20437;-42
2020/12/15 05:26:25;;;;;;;5.95;4.40;;;10.00;96.60;;;;;;5047312;28;20067;-43
2020/12/15 05:29:02;;;;;;;5.63;5.00;;;10.00;96.60;;;;;;5047783;28;20488;-43
2020/12/15 05:31:28;;;;;;;8.32;5.32;;;10.00;96.60;;;;;;5047463;28;20448;-43
2020/12/15 05:33:54;;;;;;;6.13;4.90;;;9.90;96.50;;;;;;5048161;28;20029;-43
2020/12/15 05:36:21;;;;;;;6.05;5.25;;;9.90;96.60;;;;;;5047964;28;20037;-43
2020/12/15 05:39:07;;;;;;;6.78;5.18;;;9.90;96.60;;;;;;5047524;28;20029;-42
2020/12/15 05:41:33;;;;;;;5.80;4.82;;;9.80;96.60;;;;;;5048078;28;20032;-43
2020/12/15 05:44:00;;;;;;;5.18;4.35;;;9.80;96.60;;;;;;5047445;28;20029;-43
2020/12/15 05:46:30;;;;;;;6.30;4.50;;;9.80;96.60;;;;;;5045833;28;20043;-42
2020/12/15 05:49:06;;;;;;;5.28;4.30;;;9.80;96.70;;;;;;5044881;28;20276;-43
2020/12/15 05:51:43;;;;;;;5.20;4.30;;;9.80;96.70;;;;;;5045265;28;20028;-43
2020/12/15 05:54:11;;;;;;;7.63;4.05;;;9.90;96.70;;;;;;5043664;28;20036;-43
2020/12/15 05:56:38;;;;;;;5.22;4.45;;;9.90;96.70;;;;;;5047670;28;20108;-44
2020/12/15 05:59:20;;;;;;;5.07;4.43;;;9.90;96.60;;;;;;5049021;28;20017;-43
2020/12/15 06:01:50;;;;;;;4.55;3.80;;;9.90;96.60;;;;;;5051055;28;20021;-43
2020/12/15 06:04:17;;;;;;;4.40;4.00;;;9.90;96.60;;;;;;5047273;28;20483;-42
2020/12/15 06:06:44;;;;;;;6.78;5.18;;;9.90;96.60;;;;;;5047488;28;20087;-42
2020/12/15 06:09:14;;;;;;;5.38;4.78;;;9.90;96.50;;;;;;5047193;28;20060;-42
2020/12/15 06:11:41;;;;;;;6.03;4.82;;;10.00;96.60;;;;;;5047579;28;20071;-43
2020/12/15 06:14:08;;;;;;;5.95;5.15;;;9.90;96.50;;;;;;5047372;28;20473;-43
2020/12/15 06:16:34;;;;;;;6.63;5.05;;;9.90;96.50;;;;;;5047866;28;20029;-43
2020/12/15 06:19:00;;;;;;;6.15;4.80;;;9.90;96.60;;;;;;5047639;28;20021;-43
2020/12/15 06:21:27;;;;;;;5.80;4.97;;;9.90;96.60;;;;;;5046273;28;20078;-43
2020/12/15 06:24:00;;;;;;;8.85;5.50;;;9.90;96.60;;;;;;5046035;28;20116;-43
2020/12/15 06:26:27;;;;;;;6.70;5.25;;;9.90;96.60;;;;;;5042983;28;20029;-43
2020/12/15 06:29:04;;;;;;;6.55;4.88;;;9.90;96.60;;;;;;5045876;28;20030;-42
2020/12/15 06:31:30;;;;;;;5.72;4.88;;;9.90;96.60;;;;;;5043775;28;20017;-42
2020/12/15 06:33:57;;;;;;;8.23;6.53;;;9.90;96.60;;;;;;5045525;28;20033;-43
2020/12/15 06:36:33;;;;;;;8.77;6.78;;;9.90;96.60;;;;;;5042416;28;20021;-42
2020/12/15 06:39:00;;;;;;;6.68;5.82;;;9.90;96.50;;;;;;5044540;28;20469;-44
2020/12/15 06:41:27;;;;;;;7.57;5.30;;;9.90;96.50;;;;;;5044120;28;20676;-43
2020/12/15 06:44:04;;;;;;;6.53;5.18;;;9.90;96.60;;;;;;5045028;28;20029;-45
2020/12/15 06:46:30;;;;;;;7.07;4.88;;;9.90;96.60;;;;;;5054194;28;21083;-43
2020/12/15 06:48:55;;;;;;;7.15;5.60;;;9.90;96.50;;;;;;5045662;28;20468;-43
2020/12/15 06:51:32;;;;;;;8.50;4.85;;;10.00;96.50;;;;;;5045594;28;20036;-42
2020/12/15 06:54:04;;;;;;;6.03;5.03;;;10.00;96.50;;;;;;5045882;28;20801;-42
2020/12/15 06:56:31;;;;;;;7.75;4.57;;;10.00;96.50;;;;;;5051162;28;20082;-44
2020/12/15 06:59:07;;;;;;;5.15;4.55;;;10.00;96.40;;;;;;5045904;28;20636;-44
2020/12/15 07:01:33;;;;;;;5.60;4.43;;;10.00;96.40;;;;;;5042919;28;20850;-43
2020/12/15 07:04:04;;;;;;;8.73;5.70;;;10.00;96.40;;;;;;5044272;28;20021;-42
2020/12/15 07:06:30;;;;;;;8.32;6.18;;;10.00;96.50;;;;;;5044491;28;20032;-43
2020/12/15 07:09:13;;;;;;;6.25;4.70;;;10.00;96.50;;;;;;5045078;28;20503;-42
2020/12/15 07:11:40;;;;;;;6.10;5.45;;;10.00;96.50;;;;;;5044360;28;20071;-42
2020/12/15 07:14:05;;;;;;;8.50;6.30;;;10.00;96.50;;;;;;5045334;28;20017;-42
2020/12/15 07:16:32;;;;;;;9.93;6.72;;;10.00;96.50;;;;;;5045132;28;20031;-43
2020/12/15 07:18:58;;;;;;;8.52;6.10;;;10.00;96.50;;;;;;5053497;28;20024;-43
2020/12/15 07:21:29;;;;;;;6.80;5.88;;;10.00;96.40;;;;;;5049418;28;20021;-42
2020/12/15 07:23:59;;;;;;;5.78;5.18;;;10.00;96.40;;;;;;5046451;28;20082;-42
2020/12/15 07:26:25;;;;;;;6.47;5.53;;;10.00;96.40;;;;;;5047224;28;20037;-43
2020/12/15 07:28:52;;;;;;;5.38;4.40;;;10.00;96.50;;;;;;5057468;28;20466;-42
2020/12/15 07:31:29;;;;;;;6.53;5.90;;;10.00;96.50;;;;;;5045889;28;20025;-43
2020/12/15 07:34:07;;;;;;;7.28;5.22;;;10.00;96.40;;;;;;5046983;28;20032;-43
2020/12/15 07:36:35;;;;;;;7.40;5.07;;;10.00;96.40;;;;;;5047233;28;20512;-43
2020/12/15 07:39:01;;;;;;;5.97;4.72;;;10.00;96.60;;;;;;5046437;28;20059;-43
2020/12/15 07:41:26;;;;;;;6.35;5.53;;;10.00;96.50;;;;;;5046533;28;20540;-44
2020/12/15 07:43:53;;;;;;;9.43;5.43;;;10.00;96.40;;;;;;5047087;28;20029;-43
2020/12/15 07:46:20;;;;;;;6.68;5.50;;;10.00;96.50;;;;;;5046619;28;20044;-43
2020/12/15 07:48:46;;;;;;;9.13;7.15;;;10.00;96.40;;;;;;5050829;28;20021;-44
2020/12/15 07:51:12;;;;;;;9.07;7.40;;;10.00;96.40;;;;;;5052739;28;20028;-42
2020/12/15 07:53:37;;;;;;;8.32;6.82;;;10.00;96.40;;;;;;5059121;28;20017;-43
2020/12/15 07:56:05;;;;;;;7.93;6.20;;;10.00;96.40;;;;;;5061805;28;20673;-43
2020/12/15 07:58:31;;;;;;;6.85;6.15;;;10.00;96.40;;;;;;5070302;28;20495;-43
2020/12/15 08:00:58;;;;;;;5.60;5.07;;;10.00;96.40;;;;;;5070238;28;20111;-43
2020/12/15 08:03:23;;;;;;;6.20;5.07;;;10.00;96.50;;;;;;5068759;28;20027;-43
2020/12/15 08:05:49;;;;;;;8.55;5.65;;;10.00;96.40;;;;;;5070534;28;20032;-43
2020/12/15 08:08:15;;;;;;;6.28;5.25;;;10.00;96.40;;;;;;5069171;28;20098;-43
2020/12/15 08:10:40;;;;;;;5.82;4.72;;;10.00;96.40;;;;;;5070323;28;20021;-43
2020/12/15 08:13:06;;;;;;;6.97;5.68;;;10.00;96.40;;;;;;5069783;28;20107;-45
2020/12/15 08:15:40;;;;;;;5.97;5.03;;;10.00;96.40;;;;;;5069864;28;20622;-43
2020/12/15 08:18:10;;;;;;;6.65;5.55;;;10.00;96.50;;;;;;5069897;28;20032;-43
2020/12/15 08:20:37;;;;;;;6.18;5.53;;;10.00;96.40;;;;;;5069590;28;20033;-41
2020/12/15 08:23:10;;;;;;;8.48;5.43;;;10.10;96.50;;;;;;5069714;28;20013;-45
2020/12/15 08:25:36;;;;;;;;;;;10.10;96.50;;;;;;5070343;28;20039;-42
2020/12/15 08:28:21;;;;;;;5.22;4.05;;;10.10;96.50;;;;;;5069697;28;19971;-42
2020/12/15 08:30:48;;;;;;;6.22;4.55;;;10.10;96.40;;;;;;5070355;28;20435;-42
2020/12/15 08:33:25;;;;;;;5.53;4.93;;;10.10;96.40;;;;;;5069308;28;20025;-43
2020/12/15 08:35:51;;;;;;;6.57;5.60;;;10.10;96.40;;;;;;5069777;28;20020;-43
2020/12/15 08:38:17;;;;;;;5.93;5.32;;;10.10;96.40;;;;;;5069458;28;20082;-42
2020/12/15 08:40:50;;;;;;;10.73;7.57;;;10.10;96.40;;;;;;5069674;28;20066;-43
2020/12/15 08:43:16;;;;;;;9.38;7.60;;;10.10;96.40;;;;;;5068632;28;20036;-42
2020/12/15 08:45:42;;;;;;;7.40;6.38;;;10.10;96.40;;;;;;5069442;28;20602;-43
2020/12/15 08:48:23;;;;;;;7.32;6.50;;;10.10;96.40;;;;;;5067122;28;20369;-43
2020/12/15 08:50:50;;;;;;;8.30;6.68;;;10.10;96.40;;;;;;5047086;28;20020;-43
2020/12/15 08:53:17;;;;;;;6.35;5.65;;;10.10;96.40;;;;;;5059055;28;20106;-43
2020/12/15 08:55:46;;;;;;;9.68;6.28;;;10.10;96.40;;;;;;5050106;28;20049;-42
2020/12/15 08:58:12;;;;;;;6.57;5.72;;;10.20;96.40;;;;;;5057340;28;20082;-43
2020/12/15 09:00:42;;;;;;;5.93;5.30;;;10.20;96.40;;;;;;5061907;28;20021;-43
2020/12/15 09:03:10;;;;;;;9.85;6.55;;;10.20;96.40;;;;;;5046705;28;20116;-43
2020/12/15 09:05:46;;;;;;;5.20;4.70;;;10.20;96.40;;;;;;5047650;28;20480;-42
2020/12/15 09:08:11;;;;;;;6.95;6.10;;;10.20;96.40;;;;;;5048084;28;20020;-44
2020/12/15 09:10:37;;;;;;;6.35;5.75;;;10.20;96.40;;;;;;5048567;28;20024;-43
2020/12/15 09:13:04;;;;;;;8.13;6.20;;;10.20;96.40;;;;;;5049345;28;20464;-42
2020/12/15 09:15:30;;;;;;;7.53;6.53;;;10.20;96.70;;;;;;5048310;28;20619;-42
2020/12/15 09:17:55;;;;;;;7.68;6.65;;;10.20;96.40;;;;;;5053803;28;20108;-42
2020/12/15 09:20:26;;;;;;;8.80;7.13;;;10.20;96.40;;;;;;5053935;28;20476;-42
2020/12/15 09:22:51;;;;;;;8.60;7.35;;;10.30;96.50;;;;;;5059952;28;20028;-42
2020/12/15 09:25:17;;;;;;;8.95;7.80;;;10.20;96.70;;;;;;5056559;28;20119;-42
2020/12/15 09:27:45;;;;;;;8.48;7.63;;;10.20;96.50;;;;;;5064114;28;20055;-43
2020/12/15 09:30:12;;;;;;;8.93;7.97;;;10.20;96.50;;;;;;5058424;28;20057;-42
2020/12/15 09:32:38;;;;;;;8.73;7.22;;;10.30;96.60;;;;;;5053695;28;20028;-42
2020/12/15 09:35:04;;;;;;;6.60;5.90;;;10.30;96.60;;;;;;5048708;28;20033;-42
2020/12/15 09:37:30;;;;;;;7.93;7.13;;;10.30;96.60;;;;;;5047623;28;20025;-42
2020/12/15 09:39:57;;;;;;;7.28;5.85;;;10.30;96.60;;;;;;5048365;28;20104;-42
2020/12/15 09:42:24;;;;;;;7.70;6.90;;;10.30;96.50;;;;;;5048472;28;20048;-42
2020/12/15 09:44:51;;;;;;;7.93;6.10;;;10.40;96.50;;;;;;5047684;28;20116;-42
2020/12/15 09:47:16;;;;;;;10.25;6.57;;;10.40;96.50;;;;;;5049451;28;20542;-42
2020/12/15 09:49:42;;;;;;;8.80;7.05;;;10.40;96.50;;;;;;5048278;28;20021;-42
2020/12/15 09:52:07;;;;;;;9.25;7.50;;;10.40;96.50;;;;;;5046102;28;20022;-43
2020/12/15 09:54:33;;;;;;;7.53;6.78;;;10.40;96.50;;;;;;5047949;28;20412;-42
2020/12/15 09:56:59;;;;;;;9.55;6.45;;;10.40;96.50;;;;;;5048511;28;20109;-43
2020/12/15 09:59:24;;;;;;;8.55;7.28;;;10.40;96.50;;;;;;5046070;28;20388;-44
2020/12/15 10:01:50;;;;;;;7.70;6.45;;;10.40;96.50;;;;;;5046739;28;20032;-44
2020/12/15 10:04:16;;;;;;;9.00;7.15;;;10.40;96.50;;;;;;5047540;28;20124;-43
2020/12/15 10:06:43;;;;;;;9.18;7.22;;;10.40;96.50;;;;;;5047588;28;20025;-43
2020/12/15 10:09:08;;;;;;;7.93;7.07;;;10.40;96.50;;;;;;5046993;28;20036;-43
2020/12/15 10:11:34;;;;;;;11.38;7.88;;;10.40;96.50;;;;;;5047865;28;20017;-43
2020/12/15 10:14:00;;;;;;;6.88;6.18;;;10.40;96.50;;;;;;5047607;28;20755;-44
2020/12/15 10:16:26;;;;;;;7.30;6.20;;;10.50;96.50;;;;;;5047719;28;20108;-42
2020/12/15 10:18:52;;;;;;;8.38;6.72;;;10.50;96.50;;;;;;5047576;28;20171;-42
2020/12/15 10:21:18;;;;;;;7.43;6.57;;;10.50;96.50;;;;;;5045485;28;20036;-42
2020/12/15 10:23:47;;;;;;;7.85;6.25;;;10.50;96.50;;;;;;5047725;28;20070;-43
2020/12/15 10:26:13;;;;;;;7.10;6.35;;;10.50;96.50;;;;;;5047376;28;20021;-43
2020/12/15 10:28:41;;;;;;;7.68;6.28;;;10.60;96.50;;;;;;5046276;28;20147;-44
2020/12/15 10:31:08;;;;;;;7.03;6.25;;;10.60;96.50;;;;;;5046904;28;20041;-33
2020/12/15 10:33:34;;;;;;;7.22;6.40;;;10.60;96.50;;;;;;5047812;28;20039;-34
2020/12/15 10:36:05;;;;;;;7.03;6.30;;;10.60;96.50;;;;;;5047271;28;20029;-32
2020/12/15 10:38:32;;;;;;;8.23;6.80;;;10.60;96.50;;;;;;5047643;28;20047;-35
2020/12/15 10:40:57;;;;;;;8.18;7.38;;;10.70;96.50;;;;;;5046936;28;20033;-43
2020/12/15 10:43:24;;;;;;;9.88;7.22;;;10.70;96.50;;;;;;5047004;28;20070;-33
2020/12/15 10:45:49;;;;;;;9.50;7.40;;;10.70;96.40;;;;;;5045877;28;20169;-34
2020/12/15 10:48:15;;;;;;;6.93;6.22;;;10.70;96.40;;;;;;5044582;28;20567;-34
2020/12/15 10:50:41;;;;;;;7.68;6.97;;;10.70;96.40;;;;;;5047452;28;20040;-34
2020/12/15 10:53:10;;;;;;;9.30;7.55;;;10.70;96.40;;;;;;5045048;28;20464;-42
2020/12/15 10:55:36;;;;;;;7.35;6.55;;;10.70;96.50;;;;;;5046485;28;20045;-32
2020/12/15 10:58:02;;;;;;;8.20;6.82;;;10.70;96.40;;;;;;5047609;28;20036;-32
2020/12/15 11:00:27;;;;;;;8.05;7.03;;;10.70;96.40;;;;;;5046583;28;20401;-33
2020/12/15 11:02:53;;;;;;;8.65;7.75;;;10.70;96.50;;;;;;5046836;28;20036;-33
2020/12/15 11:05:18;;;;;;;8.25;7.45;;;10.70;96.50;;;;;;5046240;28;20071;-33
2020/12/15 11:07:45;;;;;;;9.00;7.30;;;10.70;96.50;;;;;;5046764;28;20440;-33
2020/12/15 11:10:10;;;;;;;8.60;6.72;;;10.70;96.50;;;;;;5041269;28;20029;-33
2020/12/15 11:12:36;;;;;;;7.53;6.50;;;10.70;96.50;;;;;;5029848;28;20025;-32
2020/12/15 11:15:02;;;;;;;7.63;6.57;;;10.70;96.50;;;;;;5025893;28;20021;-42
2020/12/15 11:17:27;;;;;;;6.85;6.25;;;10.70;96.50;;;;;;5039496;28;20025;-42
2020/12/15 11:19:53;;;;;;;7.78;7.00;;;10.80;96.50;;;;;;5046835;28;20021;-43
2020/12/15 11:22:18;;;;;;;6.47;5.88;;;10.80;96.50;;;;;;5039314;28;20475;-42
2020/12/15 11:24:44;;;;;;;6.63;5.93;;;10.80;96.50;;;;;;5037301;28;20043;-43
2020/12/15 11:27:09;;;;;;;7.10;6.40;;;10.80;96.40;;;;;;5034407;28;20025;-43
2020/12/15 11:29:35;;;;;;;7.72;6.97;;;10.80;96.40;;;;;;5037715;28;20103;-42
2020/12/15 11:32:00;;;;;;;8.15;6.90;;;10.80;96.40;;;;;;5051323;28;20073;-43
2020/12/15 11:34:26;;;;;;;7.68;6.35;;;10.80;96.50;;;;;;5052018;28;20381;-42
2020/12/15 11:36:55;;;;;;;7.82;6.40;;;10.80;96.50;;;;;;5051543;28;20067;-42
2020/12/15 11:39:22;;;;;;;7.70;6.75;;;10.80;96.50;;;;;;5046254;28;20025;-43
2020/12/15 11:41:48;;;;;;;7.97;6.65;;;10.80;96.50;;;;;;5047128;28;20028;-42
2020/12/15 11:44:13;;;;;;;7.45;6.63;;;10.80;96.50;;;;;;5045401;28;20064;-42
2020/12/15 11:46:39;;;;;;;6.18;5.57;;;10.80;96.50;;;;;;5046407;28;20464;-42
2020/12/15 11:49:05;;;;;;;6.22;5.63;;;10.80;96.50;;;;;;5054534;28;20027;-43
2020/12/15 11:51:30;;;;;;;8.02;6.10;;;10.80;96.40;;;;;;5055692;28;20108;-43
2020/12/15 11:53:56;;;;;;;7.53;6.53;;;10.80;96.50;;;;;;5054395;28;20123;-43
2020/12/15 11:56:21;;;;;;;7.10;6.40;;;10.80;96.50;;;;;;5056887;28;20051;-43
2020/12/15 11:58:47;;;;;;;7.40;6.68;;;10.80;96.50;;;;;;5066237;28;20028;-43
2020/12/15 12:01:13;;;;;;;6.82;5.65;;;10.80;96.60;;;;;;5066061;28;20028;-43
2020/12/15 12:03:38;;;;;;;7.47;6.55;;;10.80;96.50;;;;;;5066890;28;20036;-43
2020/12/15 12:06:04;;;;;;;8.68;6.80;;;10.80;96.50;;;;;;5066075;28;20028;-43
2020/12/15 12:08:29;;;;;;;7.10;6.32;;;10.80;96.50;;;;;;5066057;28;20024;-43
2020/12/15 12:10:55;;;;;;;6.70;6.00;;;10.80;96.50;;;;;;5066979;28;20112;-42
2020/12/15 12:13:21;;;;;;;6.65;5.95;;;10.90;96.50;;;;;;5065494;28;20032;-42
2020/12/15 12:15:46;;;;;;;7.78;6.60;;;10.80;96.40;;;;;;5063256;28;20509;-34
2020/12/15 12:18:12;;;;;;;6.40;5.68;;;10.90;96.50;;;;;;5066101;28;20115;-42
2020/12/15 12:20:37;;;;;;;6.65;6.05;;;10.90;96.50;;;;;;5053623;28;20061;-43
2020/12/15 12:23:04;;;;;;;6.72;5.55;;;10.90;96.50;;;;;;5046576;28;20037;-42
2020/12/15 12:25:29;;;;;;;7.05;6.22;;;10.90;96.50;;;;;;5045507;28;20751;-43
2020/12/15 12:27:55;;;;;;;7.57;6.80;;;10.90;96.50;;;;;;5045946;28;20031;-48
2020/12/15 12:30:21;;;;;;;7.63;6.72;;;10.90;96.60;;;;;;5046174;28;20039;-43
2020/12/15 12:32:46;;;;;;;7.88;6.97;;;10.90;96.50;;;;;;5047535;28;20518;-43
2020/12/15 12:35:12;;;;;;;8.60;7.13;;;10.90;96.50;;;;;;5049373;28;20033;-42
2020/12/15 12:37:38;;;;;;;7.13;5.82;;;10.90;96.50;;;;;;5048221;28;20529;-43
2020/12/15 12:40:05;;;;;;;8.13;6.45;;;10.90;96.50;;;;;;5049610;28;20025;-42
2020/12/15 12:42:33;;;;;;;7.90;7.00;;;10.90;96.50;;;;;;5048076;28;20179;-43
2020/12/15 12:44:59;;;;;;;7.63;6.68;;;10.90;96.50;;;;;;5048432;28;20045;-43
2020/12/15 12:47:24;;;;;;;9.45;8.23;;;10.90;96.60;;;;;;5047277;28;20024;-33
2020/12/15 12:49:50;;;;;;;8.55;7.65;;;10.90;96.50;;;;;;5048584;28;20565;-33
2020/12/15 12:52:15;;;;;;;7.72;6.82;;;10.90;96.60;;;;;;5048036;28;20641;-43